sensor_id;sensor_type;location;lat;lon;timestamp;P1;durP1;ratioP1;P2;durP2;ratioP2
35330;SDS011;21441;52.190;20.910;2022-10-16T00:02:25;12.95;;;9.10;;
35330;SDS011;21441;52.190;20.910;2022-10-16T00:04:52;9.35;;;8.10;;
35330;SDS011;21441;52.190;20.910;2022-10-16T00:07:20;9.95;;;8.45;;
35330;SDS011;21441;52.190;20.910;2022-10-16T00:09:47;10.90;;;8.00;;
35330;SDS011;21441;52.190;20.910;2022-10-16T00:12:13;11.50;;;8.20;;
35330;SDS011;21441;52.190;20.910;2022-10-16T00:14:42;12.18;;;9.30;;
35330;SDS011;21441;52.190;20.910;2022-10-16T00:17:09;10.82;;;8.82;;
35330;SDS011;21441;52.190;20.910;2022-10-16T00:19:36;12.65;;;8.50;;
35330;SDS011;21441;52.190;20.910;2022-10-16T00:22:03;14.50;;;9.18;;
35330;SDS011;21441;52.190;20.910;2022-10-16T00:24:30;11.52;;;8.95;;
35330;SDS011;21441;52.190;20.910;2022-10-16T00:26:57;16.73;;;10.00;;
35330;SDS011;21441;52.190;20.910;2022-10-16T00:29:24;17.40;;;11.38;;
35330;SDS011;21441;52.190;20.910;2022-10-16T00:31:52;15.93;;;10.90;;
35330;SDS011;21441;52.190;20.910;2022-10-16T00:34:19;17.52;;;12.18;;
35330;SDS011;21441;52.190;20.910;2022-10-16T00:36:45;17.30;;;12.02;;
35330;SDS011;21441;52.190;20.910;2022-10-16T00:39:13;16.95;;;11.77;;
35330;SDS011;21441;52.190;20.910;2022-10-16T00:41:39;15.80;;;13.05;;
35330;SDS011;21441;52.190;20.910;2022-10-16T00:47:09;17.33;;;12.98;;
35330;SDS011;21441;52.190;20.910;2022-10-16T00:49:38;17.92;;;12.65;;
35330;SDS011;21441;52.190;20.910;2022-10-16T00:52:05;17.70;;;12.93;;
35330;SDS011;21441;52.190;20.910;2022-10-16T00:54:32;20.02;;;14.07;;
35330;SDS011;21441;52.190;20.910;2022-10-16T00:57:00;19.15;;;13.23;;
35330;SDS011;21441;52.190;20.910;2022-10-16T00:59:32;20.92;;;13.48;;
35330;SDS011;21441;52.190;20.910;2022-10-16T01:02:01;17.20;;;12.43;;
35330;SDS011;21441;52.190;20.910;2022-10-16T01:04:32;18.17;;;12.82;;
35330;SDS011;21441;52.190;20.910;2022-10-16T01:07:03;19.17;;;12.98;;
35330;SDS011;21441;52.190;20.910;2022-10-16T01:09:38;19.00;;;13.82;;
35330;SDS011;21441;52.190;20.910;2022-10-16T01:12:14;18.73;;;13.25;;
35330;SDS011;21441;52.190;20.910;2022-10-16T01:14:45;19.83;;;13.45;;
35330;SDS011;21441;52.190;20.910;2022-10-16T01:17:18;17.88;;;13.32;;
35330;SDS011;21441;52.190;20.910;2022-10-16T01:19:58;18.67;;;13.93;;
35330;SDS011;21441;52.190;20.910;2022-10-16T01:22:33;17.83;;;13.15;;
35330;SDS011;21441;52.190;20.910;2022-10-16T01:25:08;17.30;;;12.85;;
35330;SDS011;21441;52.190;20.910;2022-10-16T01:27:41;22.27;;;13.38;;
35330;SDS011;21441;52.190;20.910;2022-10-16T01:30:13;18.42;;;14.35;;
35330;SDS011;21441;52.190;20.910;2022-10-16T01:32:45;20.75;;;13.23;;
35330;SDS011;21441;52.190;20.910;2022-10-16T01:35:20;20.00;;;14.70;;
35330;SDS011;21441;52.190;20.910;2022-10-16T01:37:50;20.48;;;14.05;;
35330;SDS011;21441;52.190;20.910;2022-10-16T01:40:20;19.23;;;13.65;;
35330;SDS011;21441;52.190;20.910;2022-10-16T01:42:53;18.30;;;13.73;;
35330;SDS011;21441;52.190;20.910;2022-10-16T01:45:25;20.30;;;13.68;;
35330;SDS011;21441;52.190;20.910;2022-10-16T01:47:55;21.95;;;15.00;;
35330;SDS011;21441;52.190;20.910;2022-10-16T01:50:24;18.25;;;14.02;;
35330;SDS011;21441;52.190;20.910;2022-10-16T01:52:54;20.27;;;13.43;;
35330;SDS011;21441;52.190;20.910;2022-10-16T01:55:24;17.85;;;12.98;;
35330;SDS011;21441;52.190;20.910;2022-10-16T01:57:57;21.98;;;14.57;;
35330;SDS011;21441;52.190;20.910;2022-10-16T02:00:26;19.80;;;14.27;;
35330;SDS011;21441;52.190;20.910;2022-10-16T02:02:55;21.50;;;14.88;;
35330;SDS011;21441;52.190;20.910;2022-10-16T02:05:26;19.80;;;13.63;;
35330;SDS011;21441;52.190;20.910;2022-10-16T02:07:56;23.85;;;14.40;;
35330;SDS011;21441;52.190;20.910;2022-10-16T02:10:23;19.35;;;14.88;;
35330;SDS011;21441;52.190;20.910;2022-10-16T02:12:53;25.67;;;14.32;;
35330;SDS011;21441;52.190;20.910;2022-10-16T02:15:27;25.42;;;15.18;;
35330;SDS011;21441;52.190;20.910;2022-10-16T02:17:54;22.73;;;14.93;;
35330;SDS011;21441;52.190;20.910;2022-10-16T02:20:22;20.73;;;15.85;;
35330;SDS011;21441;52.190;20.910;2022-10-16T02:22:53;25.65;;;15.68;;
35330;SDS011;21441;52.190;20.910;2022-10-16T02:25:24;21.02;;;15.35;;
35330;SDS011;21441;52.190;20.910;2022-10-16T02:27:54;19.38;;;14.73;;
35330;SDS011;21441;52.190;20.910;2022-10-16T02:30:28;29.88;;;15.20;;
35330;SDS011;21441;52.190;20.910;2022-10-16T02:33:00;25.15;;;16.45;;
35330;SDS011;21441;52.190;20.910;2022-10-16T02:35:30;26.13;;;15.80;;
35330;SDS011;21441;52.190;20.910;2022-10-16T02:37:58;20.52;;;15.10;;
35330;SDS011;21441;52.190;20.910;2022-10-16T02:40:25;22.45;;;17.05;;
35330;SDS011;21441;52.190;20.910;2022-10-16T02:42:54;22.77;;;15.40;;
35330;SDS011;21441;52.190;20.910;2022-10-16T02:45:23;21.85;;;15.13;;
35330;SDS011;21441;52.190;20.910;2022-10-16T02:47:50;23.27;;;15.80;;
35330;SDS011;21441;52.190;20.910;2022-10-16T02:50:17;21.95;;;16.25;;
35330;SDS011;21441;52.190;20.910;2022-10-16T02:52:44;24.42;;;15.70;;
35330;SDS011;21441;52.190;20.910;2022-10-16T02:55:11;21.02;;;16.17;;
35330;SDS011;21441;52.190;20.910;2022-10-16T02:57:38;20.92;;;15.23;;
35330;SDS011;21441;52.190;20.910;2022-10-16T03:00:06;23.55;;;15.90;;
35330;SDS011;21441;52.190;20.910;2022-10-16T03:02:35;27.63;;;16.98;;
35330;SDS011;21441;52.190;20.910;2022-10-16T03:05:02;22.83;;;17.10;;
35330;SDS011;21441;52.190;20.910;2022-10-16T03:07:29;22.63;;;15.13;;
35330;SDS011;21441;52.190;20.910;2022-10-16T03:09:56;23.17;;;15.95;;
35330;SDS011;21441;52.190;20.910;2022-10-16T03:12:25;24.40;;;15.93;;
35330;SDS011;21441;52.190;20.910;2022-10-16T03:14:52;21.77;;;16.08;;
35330;SDS011;21441;52.190;20.910;2022-10-16T03:17:19;24.80;;;16.58;;
35330;SDS011;21441;52.190;20.910;2022-10-16T03:19:47;22.95;;;15.05;;
35330;SDS011;21441;52.190;20.910;2022-10-16T03:22:14;23.13;;;16.38;;
35330;SDS011;21441;52.190;20.910;2022-10-16T03:24:41;24.40;;;15.50;;
35330;SDS011;21441;52.190;20.910;2022-10-16T03:27:08;27.70;;;16.63;;
35330;SDS011;21441;52.190;20.910;2022-10-16T03:29:35;24.60;;;16.85;;
35330;SDS011;21441;52.190;20.910;2022-10-16T03:32:02;23.30;;;14.82;;
35330;SDS011;21441;52.190;20.910;2022-10-16T03:34:29;23.17;;;16.88;;
35330;SDS011;21441;52.190;20.910;2022-10-16T03:36:57;22.13;;;15.15;;
35330;SDS011;21441;52.190;20.910;2022-10-16T03:39:24;23.10;;;16.02;;
35330;SDS011;21441;52.190;20.910;2022-10-16T03:41:52;21.45;;;15.60;;
35330;SDS011;21441;52.190;20.910;2022-10-16T03:44:19;23.08;;;15.52;;
35330;SDS011;21441;52.190;20.910;2022-10-16T03:46:46;24.65;;;16.00;;
35330;SDS011;21441;52.190;20.910;2022-10-16T03:49:13;21.95;;;15.93;;
35330;SDS011;21441;52.190;20.910;2022-10-16T03:51:40;22.92;;;16.48;;
35330;SDS011;21441;52.190;20.910;2022-10-16T03:54:09;21.25;;;16.40;;
35330;SDS011;21441;52.190;20.910;2022-10-16T03:56:36;24.45;;;16.50;;
35330;SDS011;21441;52.190;20.910;2022-10-16T03:59:03;27.45;;;18.98;;
35330;SDS011;21441;52.190;20.910;2022-10-16T04:01:30;29.10;;;19.45;;
35330;SDS011;21441;52.190;20.910;2022-10-16T04:03:58;32.10;;;21.75;;
35330;SDS011;21441;52.190;20.910;2022-10-16T04:06:24;26.80;;;19.33;;
35330;SDS011;21441;52.190;20.910;2022-10-16T04:08:51;27.27;;;19.52;;
35330;SDS011;21441;52.190;20.910;2022-10-16T04:11:19;23.75;;;18.17;;
35330;SDS011;21441;52.190;20.910;2022-10-16T04:13:46;23.60;;;16.52;;
35330;SDS011;21441;52.190;20.910;2022-10-16T04:16:13;22.63;;;16.00;;
35330;SDS011;21441;52.190;20.910;2022-10-16T04:18:40;24.48;;;16.63;;
35330;SDS011;21441;52.190;20.910;2022-10-16T04:21:07;22.98;;;16.45;;
35330;SDS011;21441;52.190;20.910;2022-10-16T04:23:34;24.75;;;16.55;;
35330;SDS011;21441;52.190;20.910;2022-10-16T04:26:01;22.88;;;17.40;;
35330;SDS011;21441;52.190;20.910;2022-10-16T04:28:30;22.52;;;16.55;;
35330;SDS011;21441;52.190;20.910;2022-10-16T04:30:57;21.65;;;16.65;;
35330;SDS011;21441;52.190;20.910;2022-10-16T04:33:24;25.42;;;16.52;;
35330;SDS011;21441;52.190;20.910;2022-10-16T04:35:55;22.80;;;16.23;;
35330;SDS011;21441;52.190;20.910;2022-10-16T04:38:23;21.35;;;15.80;;
35330;SDS011;21441;52.190;20.910;2022-10-16T04:40:50;22.58;;;15.63;;
35330;SDS011;21441;52.190;20.910;2022-10-16T04:43:17;22.98;;;16.15;;
35330;SDS011;21441;52.190;20.910;2022-10-16T04:45:45;22.85;;;17.02;;
35330;SDS011;21441;52.190;20.910;2022-10-16T04:48:12;20.55;;;14.50;;
35330;SDS011;21441;52.190;20.910;2022-10-16T04:50:39;21.48;;;15.93;;
35330;SDS011;21441;52.190;20.910;2022-10-16T04:53:07;28.40;;;16.85;;
35330;SDS011;21441;52.190;20.910;2022-10-16T04:55:34;24.13;;;16.90;;
35330;SDS011;21441;52.190;20.910;2022-10-16T04:58:01;21.15;;;17.27;;
35330;SDS011;21441;52.190;20.910;2022-10-16T05:00:28;22.92;;;17.17;;
35330;SDS011;21441;52.190;20.910;2022-10-16T05:02:56;28.55;;;18.00;;
35330;SDS011;21441;52.190;20.910;2022-10-16T05:05:24;26.25;;;19.08;;
35330;SDS011;21441;52.190;20.910;2022-10-16T05:07:52;22.77;;;16.15;;
35330;SDS011;21441;52.190;20.910;2022-10-16T05:10:20;26.00;;;17.75;;
35330;SDS011;21441;52.190;20.910;2022-10-16T05:12:47;25.85;;;17.98;;
35330;SDS011;21441;52.190;20.910;2022-10-16T05:15:13;23.42;;;16.75;;
35330;SDS011;21441;52.190;20.910;2022-10-16T05:17:41;26.23;;;17.08;;
35330;SDS011;21441;52.190;20.910;2022-10-16T05:20:09;22.45;;;17.13;;
35330;SDS011;21441;52.190;20.910;2022-10-16T05:22:36;23.23;;;17.65;;
35330;SDS011;21441;52.190;20.910;2022-10-16T05:25:03;29.92;;;19.52;;
35330;SDS011;21441;52.190;20.910;2022-10-16T05:27:30;27.65;;;18.48;;
35330;SDS011;21441;52.190;20.910;2022-10-16T05:29:57;25.27;;;18.38;;
35330;SDS011;21441;52.190;20.910;2022-10-16T05:32:24;26.55;;;17.23;;
35330;SDS011;21441;52.190;20.910;2022-10-16T05:34:51;24.35;;;17.17;;
35330;SDS011;21441;52.190;20.910;2022-10-16T05:37:20;23.67;;;17.20;;
35330;SDS011;21441;52.190;20.910;2022-10-16T05:39:47;22.75;;;16.92;;
35330;SDS011;21441;52.190;20.910;2022-10-16T05:42:14;23.33;;;17.27;;
35330;SDS011;21441;52.190;20.910;2022-10-16T05:44:40;21.60;;;16.20;;
35330;SDS011;21441;52.190;20.910;2022-10-16T05:47:07;25.52;;;17.52;;
35330;SDS011;21441;52.190;20.910;2022-10-16T05:49:36;24.08;;;17.60;;
35330;SDS011;21441;52.190;20.910;2022-10-16T05:52:03;26.15;;;17.02;;
35330;SDS011;21441;52.190;20.910;2022-10-16T05:54:31;25.73;;;19.17;;
35330;SDS011;21441;52.190;20.910;2022-10-16T05:56:58;23.83;;;17.17;;
35330;SDS011;21441;52.190;20.910;2022-10-16T05:59:25;25.17;;;17.75;;
35330;SDS011;21441;52.190;20.910;2022-10-16T06:01:52;24.45;;;17.92;;
35330;SDS011;21441;52.190;20.910;2022-10-16T06:04:19;21.17;;;17.30;;
35330;SDS011;21441;52.190;20.910;2022-10-16T06:06:46;24.38;;;16.65;;
35330;SDS011;21441;52.190;20.910;2022-10-16T06:09:13;23.25;;;15.93;;
35330;SDS011;21441;52.190;20.910;2022-10-16T06:11:41;23.02;;;15.88;;
35330;SDS011;21441;52.190;20.910;2022-10-16T06:14:08;22.75;;;15.93;;
35330;SDS011;21441;52.190;20.910;2022-10-16T06:16:36;20.52;;;15.85;;
35330;SDS011;21441;52.190;20.910;2022-10-16T06:19:04;20.30;;;15.75;;
35330;SDS011;21441;52.190;20.910;2022-10-16T06:21:33;21.83;;;14.85;;
35330;SDS011;21441;52.190;20.910;2022-10-16T06:24:00;21.17;;;14.95;;
35330;SDS011;21441;52.190;20.910;2022-10-16T06:26:28;25.30;;;15.55;;
35330;SDS011;21441;52.190;20.910;2022-10-16T06:28:58;23.10;;;15.63;;
35330;SDS011;21441;52.190;20.910;2022-10-16T06:31:26;18.77;;;14.53;;
35330;SDS011;21441;52.190;20.910;2022-10-16T06:33:56;22.02;;;15.02;;
35330;SDS011;21441;52.190;20.910;2022-10-16T06:36:23;19.63;;;14.20;;
35330;SDS011;21441;52.190;20.910;2022-10-16T06:38:51;18.67;;;14.05;;
35330;SDS011;21441;52.190;20.910;2022-10-16T06:41:18;18.15;;;14.00;;
35330;SDS011;21441;52.190;20.910;2022-10-16T06:43:46;18.25;;;13.70;;
35330;SDS011;21441;52.190;20.910;2022-10-16T06:46:16;21.00;;;13.65;;
35330;SDS011;21441;52.190;20.910;2022-10-16T06:48:45;18.25;;;12.82;;
35330;SDS011;21441;52.190;20.910;2022-10-16T06:51:13;18.20;;;12.85;;
35330;SDS011;21441;52.190;20.910;2022-10-16T06:53:42;19.27;;;14.15;;
35330;SDS011;21441;52.190;20.910;2022-10-16T06:56:11;20.08;;;13.65;;
35330;SDS011;21441;52.190;20.910;2022-10-16T06:58:38;18.35;;;14.55;;
35330;SDS011;21441;52.190;20.910;2022-10-16T07:01:07;18.65;;;13.50;;
35330;SDS011;21441;52.190;20.910;2022-10-16T07:03:37;19.98;;;14.30;;
35330;SDS011;21441;52.190;20.910;2022-10-16T07:06:06;19.38;;;12.80;;
35330;SDS011;21441;52.190;20.910;2022-10-16T07:08:34;19.95;;;13.95;;
35330;SDS011;21441;52.190;20.910;2022-10-16T07:11:03;17.70;;;12.98;;
35330;SDS011;21441;52.190;20.910;2022-10-16T07:13:32;21.73;;;13.88;;
35330;SDS011;21441;52.190;20.910;2022-10-16T07:16:03;19.63;;;13.68;;
35330;SDS011;21441;52.190;20.910;2022-10-16T07:18:30;18.80;;;13.98;;
35330;SDS011;21441;52.190;20.910;2022-10-16T07:21:04;19.17;;;14.07;;
35330;SDS011;21441;52.190;20.910;2022-10-16T07:23:31;17.92;;;13.90;;
35330;SDS011;21441;52.190;20.910;2022-10-16T07:25:58;18.48;;;14.27;;
35330;SDS011;21441;52.190;20.910;2022-10-16T07:28:25;18.77;;;13.80;;
35330;SDS011;21441;52.190;20.910;2022-10-16T07:30:52;20.45;;;15.02;;
35330;SDS011;21441;52.190;20.910;2022-10-16T07:33:19;21.27;;;15.32;;
35330;SDS011;21441;52.190;20.910;2022-10-16T07:35:49;20.63;;;13.63;;
35330;SDS011;21441;52.190;20.910;2022-10-16T07:38:18;23.73;;;15.07;;
35330;SDS011;21441;52.190;20.910;2022-10-16T07:40:46;19.35;;;13.40;;
35330;SDS011;21441;52.190;20.910;2022-10-16T07:43:12;17.13;;;12.60;;
35330;SDS011;21441;52.190;20.910;2022-10-16T07:45:46;19.83;;;12.70;;
35330;SDS011;21441;52.190;20.910;2022-10-16T07:48:14;17.45;;;12.57;;
35330;SDS011;21441;52.190;20.910;2022-10-16T07:50:42;18.27;;;13.40;;
35330;SDS011;21441;52.190;20.910;2022-10-16T07:53:09;15.85;;;11.77;;
35330;SDS011;21441;52.190;20.910;2022-10-16T07:55:38;18.60;;;13.85;;
35330;SDS011;21441;52.190;20.910;2022-10-16T07:58:05;17.92;;;11.60;;
35330;SDS011;21441;52.190;20.910;2022-10-16T08:02:59;17.15;;;12.35;;
35330;SDS011;21441;52.190;20.910;2022-10-16T08:05:27;17.85;;;11.63;;
35330;SDS011;21441;52.190;20.910;2022-10-16T08:07:54;14.57;;;12.02;;
35330;SDS011;21441;52.190;20.910;2022-10-16T08:10:23;15.00;;;11.70;;
35330;SDS011;21441;52.190;20.910;2022-10-16T08:12:52;18.60;;;11.17;;
35330;SDS011;21441;52.190;20.910;2022-10-16T08:15:20;12.10;;;9.45;;
35330;SDS011;21441;52.190;20.910;2022-10-16T08:17:53;12.70;;;10.57;;
35330;SDS011;21441;52.190;20.910;2022-10-16T08:20:22;18.85;;;11.20;;
35330;SDS011;21441;52.190;20.910;2022-10-16T08:22:49;14.98;;;11.05;;
35330;SDS011;21441;52.190;20.910;2022-10-16T08:25:16;14.73;;;11.95;;
35330;SDS011;21441;52.190;20.910;2022-10-16T08:27:43;13.23;;;10.60;;
35330;SDS011;21441;52.190;20.910;2022-10-16T08:30:12;14.23;;;10.77;;
35330;SDS011;21441;52.190;20.910;2022-10-16T08:32:39;15.32;;;10.45;;
35330;SDS011;21441;52.190;20.910;2022-10-16T08:35:07;15.25;;;11.20;;
35330;SDS011;21441;52.190;20.910;2022-10-16T08:37:34;17.20;;;10.88;;
35330;SDS011;21441;52.190;20.910;2022-10-16T08:40:01;14.30;;;10.93;;
35330;SDS011;21441;52.190;20.910;2022-10-16T08:42:32;15.63;;;10.88;;
35330;SDS011;21441;52.190;20.910;2022-10-16T08:45:26;16.65;;;11.90;;
35330;SDS011;21441;52.190;20.910;2022-10-16T08:48:09;17.95;;;11.70;;
35330;SDS011;21441;52.190;20.910;2022-10-16T08:50:44;13.77;;;10.65;;
35330;SDS011;21441;52.190;20.910;2022-10-16T08:53:14;13.02;;;10.07;;
35330;SDS011;21441;52.190;20.910;2022-10-16T08:55:45;11.48;;;9.63;;
35330;SDS011;21441;52.190;20.910;2022-10-16T08:58:15;15.90;;;9.98;;
35330;SDS011;21441;52.190;20.910;2022-10-16T09:00:46;14.15;;;10.60;;
35330;SDS011;21441;52.190;20.910;2022-10-16T09:03:17;13.10;;;10.55;;
35330;SDS011;21441;52.190;20.910;2022-10-16T09:08:56;15.32;;;10.80;;
35330;SDS011;21441;52.190;20.910;2022-10-16T09:11:36;15.32;;;10.32;;
35330;SDS011;21441;52.190;20.910;2022-10-16T09:14:17;13.15;;;10.98;;
35330;SDS011;21441;52.190;20.910;2022-10-16T09:17:06;12.63;;;10.02;;
35330;SDS011;21441;52.190;20.910;2022-10-16T09:19:49;13.52;;;10.52;;
35330;SDS011;21441;52.190;20.910;2022-10-16T09:22:21;12.55;;;9.63;;
35330;SDS011;21441;52.190;20.910;2022-10-16T09:24:53;12.65;;;10.38;;
35330;SDS011;21441;52.190;20.910;2022-10-16T09:27:21;11.32;;;9.82;;
35330;SDS011;21441;52.190;20.910;2022-10-16T09:29:49;11.70;;;9.45;;
35330;SDS011;21441;52.190;20.910;2022-10-16T09:32:18;13.55;;;10.25;;
35330;SDS011;21441;52.190;20.910;2022-10-16T09:34:47;10.93;;;9.60;;
35330;SDS011;21441;52.190;20.910;2022-10-16T09:37:17;12.18;;;9.05;;
35330;SDS011;21441;52.190;20.910;2022-10-16T09:39:46;14.90;;;10.05;;
35330;SDS011;21441;52.190;20.910;2022-10-16T09:42:16;11.27;;;9.45;;
35330;SDS011;21441;52.190;20.910;2022-10-16T09:44:46;13.00;;;9.77;;
35330;SDS011;21441;52.190;20.910;2022-10-16T09:47:15;13.20;;;10.75;;
35330;SDS011;21441;52.190;20.910;2022-10-16T09:49:53;14.68;;;10.57;;
35330;SDS011;21441;52.190;20.910;2022-10-16T09:52:22;10.85;;;9.23;;
35330;SDS011;21441;52.190;20.910;2022-10-16T09:54:49;15.55;;;9.88;;
35330;SDS011;21441;52.190;20.910;2022-10-16T09:57:18;12.38;;;9.98;;
35330;SDS011;21441;52.190;20.910;2022-10-16T09:59:45;12.43;;;10.00;;
35330;SDS011;21441;52.190;20.910;2022-10-16T10:02:14;10.18;;;9.05;;
35330;SDS011;21441;52.190;20.910;2022-10-16T10:04:46;12.77;;;9.18;;
35330;SDS011;21441;52.190;20.910;2022-10-16T10:07:17;12.38;;;9.80;;
35330;SDS011;21441;52.190;20.910;2022-10-16T10:09:47;11.30;;;9.07;;
35330;SDS011;21441;52.190;20.910;2022-10-16T10:12:16;12.40;;;9.10;;
35330;SDS011;21441;52.190;20.910;2022-10-16T10:14:46;13.55;;;9.75;;
35330;SDS011;21441;52.190;20.910;2022-10-16T10:34:52;13.48;;;10.35;;
35330;SDS011;21441;52.190;20.910;2022-10-16T10:37:37;12.15;;;9.93;;
35330;SDS011;21441;52.190;20.910;2022-10-16T10:40:22;11.98;;;9.73;;
35330;SDS011;21441;52.190;20.910;2022-10-16T10:42:57;12.15;;;10.35;;
35330;SDS011;21441;52.190;20.910;2022-10-16T10:45:28;11.80;;;9.80;;
35330;SDS011;21441;52.190;20.910;2022-10-16T10:48:20;13.70;;;10.80;;
35330;SDS011;21441;52.190;20.910;2022-10-16T10:51:01;12.52;;;9.52;;
35330;SDS011;21441;52.190;20.910;2022-10-16T10:53:37;12.73;;;10.15;;
35330;SDS011;21441;52.190;20.910;2022-10-16T10:56:16;12.18;;;9.40;;
35330;SDS011;21441;52.190;20.910;2022-10-16T10:58:54;12.23;;;10.23;;
35330;SDS011;21441;52.190;20.910;2022-10-16T11:01:33;14.48;;;11.25;;
35330;SDS011;21441;52.190;20.910;2022-10-16T11:04:11;13.43;;;9.77;;
35330;SDS011;21441;52.190;20.910;2022-10-16T11:06:57;16.23;;;10.48;;
35330;SDS011;21441;52.190;20.910;2022-10-16T11:09:28;13.25;;;9.55;;
35330;SDS011;21441;52.190;20.910;2022-10-16T11:12:01;11.13;;;9.77;;
35330;SDS011;21441;52.190;20.910;2022-10-16T11:14:34;12.85;;;9.82;;
35330;SDS011;21441;52.190;20.910;2022-10-16T11:17:08;12.63;;;9.55;;
35330;SDS011;21441;52.190;20.910;2022-10-16T11:19:39;11.48;;;9.52;;
35330;SDS011;21441;52.190;20.910;2022-10-16T11:22:14;12.43;;;9.48;;
35330;SDS011;21441;52.190;20.910;2022-10-16T11:24:47;12.52;;;9.07;;
35330;SDS011;21441;52.190;20.910;2022-10-16T11:27:19;14.05;;;9.65;;
35330;SDS011;21441;52.190;20.910;2022-10-16T11:29:52;11.25;;;9.23;;
35330;SDS011;21441;52.190;20.910;2022-10-16T11:32:26;12.13;;;10.68;;
35330;SDS011;21441;52.190;20.910;2022-10-16T11:35:00;11.73;;;9.50;;
35330;SDS011;21441;52.190;20.910;2022-10-16T11:37:33;11.98;;;10.23;;
35330;SDS011;21441;52.190;20.910;2022-10-16T11:40:14;10.60;;;8.85;;
35330;SDS011;21441;52.190;20.910;2022-10-16T11:42:48;11.00;;;8.40;;
35330;SDS011;21441;52.190;20.910;2022-10-16T11:45:24;14.27;;;8.63;;
35330;SDS011;21441;52.190;20.910;2022-10-16T11:48:00;11.18;;;9.10;;
35330;SDS011;21441;52.190;20.910;2022-10-16T11:50:32;10.90;;;8.23;;
35330;SDS011;21441;52.190;20.910;2022-10-16T11:53:08;10.60;;;8.90;;
35330;SDS011;21441;52.190;20.910;2022-10-16T11:58:12;12.45;;;8.32;;
35330;SDS011;21441;52.190;20.910;2022-10-16T12:00:46;13.25;;;9.80;;
35330;SDS011;21441;52.190;20.910;2022-10-16T12:08:25;13.50;;;9.27;;
35330;SDS011;21441;52.190;20.910;2022-10-16T12:10:53;13.45;;;8.57;;
35330;SDS011;21441;52.190;20.910;2022-10-16T12:13:28;11.30;;;8.73;;
35330;SDS011;21441;52.190;20.910;2022-10-16T12:16:04;10.15;;;8.20;;
35330;SDS011;21441;52.190;20.910;2022-10-16T12:18:32;12.32;;;8.48;;
35330;SDS011;21441;52.190;20.910;2022-10-16T12:30:56;12.05;;;8.50;;
35330;SDS011;21441;52.190;20.910;2022-10-16T12:33:25;12.45;;;8.63;;
35330;SDS011;21441;52.190;20.910;2022-10-16T12:35:54;11.13;;;8.80;;
35330;SDS011;21441;52.190;20.910;2022-10-16T12:38:25;12.10;;;9.52;;
35330;SDS011;21441;52.190;20.910;2022-10-16T12:43:28;14.20;;;9.88;;
35330;SDS011;21441;52.190;20.910;2022-10-16T12:46:04;11.77;;;9.00;;
35330;SDS011;21441;52.190;20.910;2022-10-16T12:48:47;12.70;;;8.18;;
35330;SDS011;21441;52.190;20.910;2022-10-16T12:51:21;11.38;;;8.52;;
35330;SDS011;21441;52.190;20.910;2022-10-16T12:53:57;10.65;;;8.75;;
35330;SDS011;21441;52.190;20.910;2022-10-16T12:56:27;13.93;;;9.15;;
35330;SDS011;21441;52.190;20.910;2022-10-16T12:59:04;10.73;;;8.57;;
35330;SDS011;21441;52.190;20.910;2022-10-16T13:01:41;10.93;;;8.27;;
35330;SDS011;21441;52.190;20.910;2022-10-16T13:04:24;9.68;;;8.05;;
35330;SDS011;21441;52.190;20.910;2022-10-16T13:07:06;11.15;;;8.60;;
35330;SDS011;21441;52.190;20.910;2022-10-16T13:09:54;10.75;;;8.80;;
35330;SDS011;21441;52.190;20.910;2022-10-16T13:12:36;14.63;;;8.18;;
35330;SDS011;21441;52.190;20.910;2022-10-16T13:15:19;10.90;;;8.23;;
35330;SDS011;21441;52.190;20.910;2022-10-16T13:17:55;14.13;;;8.57;;
35330;SDS011;21441;52.190;20.910;2022-10-16T13:20:31;9.18;;;8.18;;
35330;SDS011;21441;52.190;20.910;2022-10-16T13:23:04;10.10;;;8.27;;
35330;SDS011;21441;52.190;20.910;2022-10-16T13:25:46;9.82;;;8.45;;
35330;SDS011;21441;52.190;20.910;2022-10-16T13:28:28;9.88;;;8.15;;
35330;SDS011;21441;52.190;20.910;2022-10-16T13:30:59;10.05;;;8.43;;
35330;SDS011;21441;52.190;20.910;2022-10-16T13:33:30;11.87;;;8.43;;
35330;SDS011;21441;52.190;20.910;2022-10-16T13:35:59;9.20;;;7.93;;
35330;SDS011;21441;52.190;20.910;2022-10-16T13:38:27;11.40;;;7.90;;
35330;SDS011;21441;52.190;20.910;2022-10-16T13:40:56;8.82;;;7.40;;
35330;SDS011;21441;52.190;20.910;2022-10-16T13:43:26;10.10;;;7.35;;
35330;SDS011;21441;52.190;20.910;2022-10-16T13:45:59;9.63;;;8.43;;
35330;SDS011;21441;52.190;20.910;2022-10-16T13:48:27;10.70;;;8.02;;
35330;SDS011;21441;52.190;20.910;2022-10-16T13:50:59;12.25;;;9.05;;
35330;SDS011;21441;52.190;20.910;2022-10-16T13:53:31;10.52;;;8.15;;
35330;SDS011;21441;52.190;20.910;2022-10-16T13:55:59;9.07;;;7.90;;
35330;SDS011;21441;52.190;20.910;2022-10-16T13:58:29;11.63;;;8.13;;
35330;SDS011;21441;52.190;20.910;2022-10-16T14:00:56;9.43;;;7.65;;
35330;SDS011;21441;52.190;20.910;2022-10-16T14:03:26;11.32;;;7.55;;
35330;SDS011;21441;52.190;20.910;2022-10-16T14:05:56;10.05;;;8.10;;
35330;SDS011;21441;52.190;20.910;2022-10-16T14:08:25;11.05;;;8.35;;
35330;SDS011;21441;52.190;20.910;2022-10-16T14:10:55;10.52;;;8.88;;
35330;SDS011;21441;52.190;20.910;2022-10-16T14:13:27;11.38;;;8.52;;
35330;SDS011;21441;52.190;20.910;2022-10-16T14:16:02;10.55;;;8.55;;
35330;SDS011;21441;52.190;20.910;2022-10-16T14:18:34;10.00;;;8.05;;
35330;SDS011;21441;52.190;20.910;2022-10-16T14:21:04;11.90;;;8.40;;
35330;SDS011;21441;52.190;20.910;2022-10-16T14:23:33;12.10;;;8.48;;
35330;SDS011;21441;52.190;20.910;2022-10-16T14:26:06;11.32;;;9.38;;
35330;SDS011;21441;52.190;20.910;2022-10-16T14:28:41;11.18;;;8.60;;
35330;SDS011;21441;52.190;20.910;2022-10-16T14:33:52;13.05;;;9.18;;
35330;SDS011;21441;52.190;20.910;2022-10-16T14:36:20;11.48;;;9.02;;
35330;SDS011;21441;52.190;20.910;2022-10-16T14:38:49;11.43;;;9.35;;
35330;SDS011;21441;52.190;20.910;2022-10-16T14:41:23;12.75;;;9.75;;
35330;SDS011;21441;52.190;20.910;2022-10-16T14:43:52;11.55;;;9.68;;
35330;SDS011;21441;52.190;20.910;2022-10-16T14:48:52;11.93;;;8.77;;
35330;SDS011;21441;52.190;20.910;2022-10-16T14:51:23;12.07;;;9.88;;
35330;SDS011;21441;52.190;20.910;2022-10-16T14:53:50;12.48;;;9.20;;
35330;SDS011;21441;52.190;20.910;2022-10-16T14:56:18;11.73;;;9.18;;
35330;SDS011;21441;52.190;20.910;2022-10-16T14:58:46;11.45;;;9.05;;
35330;SDS011;21441;52.190;20.910;2022-10-16T15:01:15;13.07;;;9.25;;
35330;SDS011;21441;52.190;20.910;2022-10-16T15:03:41;10.82;;;9.73;;
35330;SDS011;21441;52.190;20.910;2022-10-16T15:06:09;15.73;;;10.25;;
35330;SDS011;21441;52.190;20.910;2022-10-16T15:08:37;14.13;;;11.38;;
35330;SDS011;21441;52.190;20.910;2022-10-16T15:11:05;16.25;;;10.50;;
35330;SDS011;21441;52.190;20.910;2022-10-16T15:13:37;15.48;;;11.45;;
35330;SDS011;21441;52.190;20.910;2022-10-16T15:16:04;13.63;;;11.10;;
35330;SDS011;21441;52.190;20.910;2022-10-16T15:18:32;16.60;;;11.10;;
35330;SDS011;21441;52.190;20.910;2022-10-16T15:20:59;14.65;;;10.18;;
35330;SDS011;21441;52.190;20.910;2022-10-16T15:23:26;13.77;;;9.98;;